Clark, Texas
Current Conditions -  °F | °C
As of 3:53 AM on Monday 26 Jan 2015 (Local Time) from KCXO Reporting Station
Clear Clear  
Wind Chill: 36°   Ceiling: Unl
Heat Index: 41°   Visibility: 10mi
Dew Point: 32°   Wind: 7mph
Humidity: 70%   Direction: 340°NNW
Pressure: 30.18"   Gusts: NA
Location:  30.2945°N, 94.9711°W
Report Text: KCXO 260953Z AUTO 34006KT 10SM CLR 05/00 A3018 RMK AO2 SLP219 T00500000
Loading
Personal Weather Stations






























Interactive Weather Map New forecast layout! Learn more

10-Day Weather Forecast

Advertisements
Track Severe Weather on mobile